首页
METAR-TAF:

METAR-TAF

机场 :

达拉斯/沃思堡国际机场

達拉斯 / 沃思堡, 得克萨斯州, 美国

纬度: 32-53-49N, 经度: 097-01-19W, 海拔: 183米

当前天气观测

该预报发布于43分钟前的11:53 UTC
风速7节,风向南转西南
温度 27°C
湿度 70%
气压 1016 hPa
能見度: 16.1公里
多云层高于9000英尺
多云层高于30000英尺

METAR: KDFW 181153Z COR 20007KT 10SM BKN090 BKN300 27/21 A3000 RMK AO2 SLP146 TCU DSNT N T02720206 10306 20272 53008

时间: 07:36 (12:36 UTC)

预报

该预报发布于1小时和6分钟前的11:30 UTC
预报有效从18日的 12点(UTC)到 19日的 18点(UTC)
风速7节,风向
能見度: 10公里
多云层高于25000英尺
从 18日的 1500点(UTC)
风速10节,风向西
能見度: 10公里
少量云层高于6000英尺
多云层高于25000英尺
从 18日的 2200点(UTC)
风速7节,风向西北
能見度: 10公里
多云层高于7000英尺, 积雨云.
多云层高于15000英尺
附近有雷暴
从 19日的 0200点(UTC)
风速8节,风向
能見度: 10公里
多云层高于7000英尺
多云层高于15000英尺
从 19日的 0600点(UTC)
风速8节,风向南转南东
能見度: 10公里
多云层高于8000英尺
多云层高于15000英尺
附近有阵雨
从 19日的 1200点(UTC)
风速10节,风向
能見度: 10公里
散云层高于11000英尺

TAF: KDFW 181130Z 1812/1918 18007KT P6SM BKN250 FM181500 26010KT P6SM FEW060 BKN250 FM182200 31007KT P6SM VCTS BKN070CB BKN150 FM190200 09008KT P6SM BKN070 BKN150 FM190600 16008KT P6SM VCSH BKN080 BKN150 FM191200 19010KT P6SM SCT110

超过4000个机场的气象观测和天气预报(METAR&TAF报告)。

可查询的气象台以黄色和红色小点在地图上表示。

将鼠标移到小点上方,可查看气象台名称。

然后点击查看天气观测和预报。

如需切换地图:点击带黑十字的绿色按钮放大地图;点击带横线的绿色按钮缩小地图;或者点击绿色箭头查看邻近地区的地图。


METAR-TAF: